createdAt,value
2018-03-28T00:01:02.761Z,9.65
2018-03-28T00:02:08.565Z,8.75
2018-03-28T00:03:15.092Z,8.90
2018-03-28T00:04:20.964Z,8.77
2018-03-28T00:05:26.885Z,8.95
2018-03-28T00:06:32.638Z,8.82
2018-03-28T00:07:39.909Z,9.48
2018-03-28T00:08:45.660Z,9.55
2018-03-28T00:09:51.416Z,9.30
2018-03-28T00:10:57.168Z,9.70
2018-03-28T00:12:03.680Z,8.57
2018-03-28T00:13:09.448Z,9.65
2018-03-28T00:14:15.206Z,9.35
2018-03-28T00:15:21.717Z,8.85
2018-03-28T00:16:27.236Z,9.27
2018-03-28T00:17:33.011Z,10.52
2018-03-28T00:18:38.782Z,8.80
2018-03-28T00:19:45.364Z,10.23
2018-03-28T00:20:51.121Z,9.50
2018-03-28T00:21:56.885Z,10.25
2018-03-28T00:23:02.633Z,10.68
2018-03-28T00:24:08.424Z,10.85
2018-03-28T00:25:14.928Z,9.95
2018-03-28T00:26:20.830Z,11.20
2018-03-28T00:27:26.606Z,9.75
2018-03-28T00:28:32.353Z,9.68
2018-03-28T00:29:38.124Z,9.75
2018-03-28T00:30:43.884Z,11.02
2018-03-28T00:31:50.424Z,10.68
2018-03-28T00:32:56.174Z,8.90
2018-03-28T00:34:01.932Z,10.63
2018-03-28T00:35:08.481Z,9.25
2018-03-28T00:36:15.266Z,12.50
2018-03-28T00:37:21.030Z,10.95
2018-03-28T00:38:26.785Z,9.48
2018-03-28T00:39:32.633Z,10.68
2018-03-28T00:40:38.410Z,10.55
2018-03-28T00:41:44.937Z,11.12
2018-03-28T00:42:50.685Z,9.70
2018-03-28T00:43:57.903Z,9.80
2018-03-28T00:45:04.412Z,10.40
2018-03-28T00:46:10.199Z,11.15
2018-03-28T00:47:16.727Z,11.50
2018-03-28T00:48:22.497Z,10.60
2018-03-28T00:49:29.096Z,11.80
2018-03-28T00:50:34.844Z,10.45
2018-03-28T00:51:40.620Z,10.23
2018-03-28T00:52:47.145Z,11.10
2018-03-28T00:53:52.930Z,10.05
2018-03-28T00:54:58.712Z,10.60
2018-03-28T00:56:04.460Z,11.07
2018-03-28T00:57:10.256Z,12.48
2018-03-28T00:58:16.787Z,11.38
2018-03-28T00:59:22.553Z,12.70
2018-03-28T01:00:28.333Z,10.55
2018-03-28T01:01:34.088Z,10.88
2018-03-28T01:02:39.865Z,11.15
2018-03-28T01:03:44.993Z,10.55
2018-03-28T01:04:50.749Z,11.88
2018-03-28T01:05:57.277Z,10.93
2018-03-28T01:07:03.093Z,12.70
2018-03-28T01:08:08.899Z,10.90
2018-03-28T01:09:15.421Z,11.70
2018-03-28T01:10:21.176Z,12.50
2018-03-28T01:11:26.956Z,9.93
2018-03-28T01:12:33.469Z,11.60
2018-03-28T01:13:39.251Z,11.60
2018-03-28T01:14:45.804Z,12.00
2018-03-28T01:15:52.325Z,11.70
2018-03-28T01:16:58.079Z,11.88
2018-03-28T01:18:03.875Z,12.15
2018-03-28T01:19:09.661Z,13.18
2018-03-28T01:20:15.531Z,11.80
2018-03-28T01:21:22.068Z,13.32
2018-03-28T01:22:27.178Z,12.52
2018-03-28T01:23:32.945Z,11.50
2018-03-28T01:24:38.908Z,13.77
2018-03-28T01:25:45.429Z,12.30
2018-03-28T01:26:51.190Z,12.13
2018-03-28T01:27:56.956Z,13.50
2018-03-28T01:29:02.900Z,10.95
2018-03-28T01:30:09.445Z,12.85
2018-03-28T01:31:15.199Z,15.07
2018-03-28T01:32:21.725Z,12.48
2018-03-28T01:33:27.484Z,12.95
2018-03-28T01:34:33.248Z,11.70
2018-03-28T01:35:39.784Z,12.00
2018-03-28T01:36:45.764Z,14.10
2018-03-28T01:37:52.295Z,12.77
2018-03-28T01:38:58.065Z,12.50
2018-03-28T01:40:03.584Z,12.70
2018-03-28T01:41:10.160Z,13.20
2018-03-28T01:42:16.736Z,13.55
2018-03-28T01:43:22.491Z,13.82
2018-03-28T01:44:28.251Z,12.90
2018-03-28T01:45:34.015Z,13.18
2018-03-28T01:46:39.792Z,12.60
2018-03-28T01:47:45.777Z,13.20
2018-03-28T01:48:51.526Z,14.55
2018-03-28T01:49:57.272Z,14.52
2018-03-28T01:51:02.800Z,14.05
2018-03-28T01:52:08.345Z,14.05
2018-03-28T01:53:14.155Z,14.38
2018-03-28T01:54:19.679Z,13.93
2018-03-28T01:55:25.433Z,13.55
2018-03-28T01:56:31.196Z,14.02
2018-03-28T01:57:36.971Z,13.73
2018-03-28T01:58:42.741Z,14.23
2018-03-28T01:59:48.500Z,13.43
2018-03-28T02:00:54.263Z,13.32
2018-03-28T02:02:00.013Z,14.07
2018-03-28T02:03:05.800Z,13.55
2018-03-28T02:04:12.313Z,15.90
2018-03-28T02:05:18.076Z,13.57
2018-03-28T02:06:23.824Z,14.63
2018-03-28T02:07:30.354Z,15.20
2018-03-28T02:08:36.129Z,13.85
2018-03-28T02:09:42.657Z,13.73
2018-03-28T02:10:48.461Z,13.30
2018-03-28T02:11:54.235Z,15.10
2018-03-28T02:12:59.994Z,14.87
2018-03-28T02:14:05.773Z,13.75
2018-03-28T02:15:12.288Z,14.40
2018-03-28T02:16:18.053Z,13.15
2018-03-28T02:17:24.582Z,14.98
2018-03-28T02:18:30.388Z,15.05
2018-03-28T02:19:36.169Z,15.48
2018-03-28T02:20:41.716Z,14.23
2018-03-28T02:21:47.483Z,13.48
2018-03-28T02:22:54.014Z,15.13
2018-03-28T02:23:59.789Z,16.73
2018-03-28T02:25:06.330Z,15.02
2018-03-28T02:26:12.094Z,15.48
2018-03-28T02:27:18.619Z,13.95
2018-03-28T02:28:24.371Z,16.20
2018-03-28T02:29:30.117Z,15.52
2018-03-28T02:30:35.898Z,16.83
2018-03-28T02:31:41.656Z,17.48
2018-03-28T02:32:47.418Z,17.33
2018-03-28T02:33:53.171Z,18.50
2018-03-28T02:34:58.939Z,16.60
2018-03-28T02:36:04.477Z,16.60
2018-03-28T02:37:10.998Z,17.30
2018-03-28T02:38:16.769Z,15.40
2018-03-28T02:39:22.529Z,17.98
2018-03-28T02:40:29.247Z,16.55
2018-03-28T02:41:35.024Z,16.58
2018-03-28T02:42:41.312Z,17.52
2018-03-28T02:43:47.079Z,15.50
2018-03-28T02:44:52.824Z,17.60
2018-03-28T02:45:58.567Z,16.50
2018-03-28T02:47:04.118Z,16.23
2018-03-28T02:48:09.872Z,17.27
2018-03-28T02:49:15.630Z,17.23
2018-03-28T02:50:22.142Z,17.30
2018-03-28T02:51:27.887Z,17.25
2018-03-28T02:52:33.656Z,17.20
2018-03-28T02:53:40.195Z,16.45
2018-03-28T02:54:45.722Z,17.77
2018-03-28T02:55:51.544Z,16.25
2018-03-28T02:56:57.343Z,16.23
2018-03-28T02:58:03.131Z,16.25
2018-03-28T02:59:08.885Z,16.37
2018-03-28T03:00:14.638Z,17.60
2018-03-28T03:01:20.410Z,17.65
2018-03-28T03:02:26.946Z,17.05
2018-03-28T03:03:32.714Z,16.92
2018-03-28T03:04:39.239Z,19.02
2018-03-28T03:05:44.993Z,17.83
2018-03-28T03:06:50.740Z,18.42
2018-03-28T03:07:57.341Z,18.37
2018-03-28T03:09:03.166Z,18.25
2018-03-28T03:10:09.676Z,18.10
2018-03-28T03:11:15.429Z,18.40
2018-03-28T03:12:21.173Z,17.58
2018-03-28T03:13:26.916Z,17.30
2018-03-28T03:14:32.694Z,18.10
2018-03-28T03:15:39.205Z,17.15
2018-03-28T03:16:44.972Z,17.40
2018-03-28T03:17:50.729Z,18.37
2018-03-28T03:18:57.242Z,16.98
2018-03-28T03:20:03.032Z,16.92
2018-03-28T03:21:09.539Z,18.25
2018-03-28T03:22:15.282Z,18.80
2018-03-28T03:23:21.028Z,17.33
2018-03-28T03:24:26.786Z,17.70
2018-03-28T03:25:32.595Z,17.83
2018-03-28T03:26:38.368Z,17.20
2018-03-28T03:27:44.118Z,17.55
2018-03-28T03:28:49.865Z,18.85
2018-03-28T03:29:55.618Z,18.00
2018-03-28T03:31:02.172Z,17.65
2018-03-28T03:32:07.913Z,18.40
2018-03-28T03:33:13.687Z,18.05
2018-03-28T03:34:20.201Z,17.90
2018-03-28T03:35:26.001Z,18.17
2018-03-28T03:36:31.572Z,19.67
2018-03-28T03:37:37.509Z,19.08
2018-03-28T03:38:43.261Z,18.50
2018-03-28T03:39:49.011Z,19.85
2018-03-28T03:40:54.766Z,18.02
2018-03-28T03:42:01.324Z,18.37
2018-03-28T03:43:07.083Z,18.00
2018-03-28T03:44:13.614Z,18.60
2018-03-28T03:45:20.129Z,18.77
2018-03-28T03:46:25.883Z,17.67
2018-03-28T03:47:31.650Z,18.75
2018-03-28T03:48:37.406Z,19.10
2018-03-28T03:49:43.951Z,19.45
2018-03-28T03:50:49.712Z,18.80
2018-03-28T03:51:55.476Z,19.00
2018-03-28T03:53:02.014Z,18.00
2018-03-28T03:54:07.790Z,19.33
2018-03-28T03:55:13.533Z,19.45
2018-03-28T03:56:19.424Z,19.60
2018-03-28T03:57:25.176Z,19.37
2018-03-28T03:58:32.466Z,18.42
2018-03-28T03:59:38.990Z,18.87
2018-03-28T04:00:44.791Z,19.65
2018-03-28T04:01:50.830Z,20.15
2018-03-28T04:02:57.342Z,20.27
2018-03-28T04:04:03.143Z,18.70
2018-03-28T04:05:08.953Z,19.95
2018-03-28T04:06:14.712Z,19.77
2018-03-28T04:07:21.229Z,19.70
2018-03-28T04:08:26.988Z,19.10
2018-03-28T04:09:32.746Z,18.80
2018-03-28T04:10:39.265Z,19.85
2018-03-28T04:11:45.018Z,18.73
2018-03-28T04:12:50.770Z,20.88
2018-03-28T04:13:57.298Z,20.35
2018-03-28T04:15:03.073Z,20.83
2018-03-28T04:16:08.511Z,19.60
2018-03-28T04:17:14.258Z,18.67
2018-03-28T04:18:20.847Z,19.02
2018-03-28T04:19:26.581Z,18.62
2018-03-28T04:20:33.665Z,20.02
2018-03-28T04:21:39.659Z,19.23
2018-03-28T04:22:47.193Z,18.65
2018-03-28T04:23:53.073Z,19.52
2018-03-28T04:24:59.398Z,20.00
2018-03-28T04:26:05.559Z,21.90
2018-03-28T04:27:11.709Z,20.80
2018-03-28T04:28:17.828Z,19.48
2018-03-28T04:29:23.901Z,19.67
2018-03-28T04:30:29.873Z,20.55
2018-03-28T04:31:35.736Z,21.40
2018-03-28T04:32:41.557Z,22.48
2018-03-28T04:33:47.388Z,20.90
2018-03-28T04:34:53.138Z,20.23
2018-03-28T04:35:58.892Z,20.60
2018-03-28T04:37:04.667Z,20.00
2018-03-28T04:38:11.197Z,19.37
2018-03-28T04:39:16.952Z,22.55
2018-03-28T04:40:22.724Z,20.67
2018-03-28T04:41:28.476Z,20.40
2018-03-28T04:42:34.253Z,20.73
2018-03-28T04:43:40.006Z,24.92
2018-03-28T04:44:45.766Z,23.25
2018-03-28T04:45:51.543Z,22.42
2018-03-28T04:46:57.300Z,22.05
2018-03-28T04:48:03.084Z,23.83
2018-03-28T04:49:08.824Z,26.25
2018-03-28T04:50:14.593Z,26.40
2018-03-28T04:51:20.914Z,26.10
2018-03-28T04:52:28.180Z,26.17
2018-03-28T04:53:33.960Z,27.87
2018-03-28T04:54:40.513Z,23.77
2018-03-28T04:55:47.112Z,25.23
2018-03-28T04:56:53.806Z,23.95
2018-03-28T04:57:59.568Z,23.27
2018-03-28T04:59:05.371Z,23.98
2018-03-28T05:00:11.130Z,23.67
2018-03-28T05:01:16.872Z,24.55
2018-03-28T05:02:22.617Z,27.70
2018-03-28T05:03:28.374Z,22.13
2018-03-28T05:04:34.157Z,25.60
2018-03-28T05:05:39.901Z,27.37
2018-03-28T05:06:45.664Z,23.52
2018-03-28T05:07:51.413Z,25.50
2018-03-28T05:08:57.167Z,24.83
2018-03-28T05:10:02.934Z,23.25
2018-03-28T05:11:08.811Z,27.45
2018-03-28T05:12:14.565Z,23.45
2018-03-28T05:13:20.352Z,27.73
2018-03-28T05:14:26.150Z,24.65
2018-03-28T05:15:31.996Z,28.85
2018-03-28T05:16:37.749Z,23.98
2018-03-28T05:17:43.516Z,21.73
2018-03-28T05:18:49.283Z,26.65
2018-03-28T05:19:55.809Z,23.15
2018-03-28T05:21:01.605Z,23.65
2018-03-28T05:22:08.127Z,26.73
2018-03-28T05:23:13.686Z,25.20
2018-03-28T05:24:20.225Z,25.75
2018-03-28T05:25:25.973Z,25.10
2018-03-28T05:26:32.530Z,24.40
2018-03-28T05:27:38.293Z,24.33
2018-03-28T05:28:44.809Z,26.55
2018-03-28T05:29:50.562Z,26.25
2018-03-28T05:30:56.847Z,29.55
2018-03-28T05:32:02.641Z,32.35
2018-03-28T05:33:08.392Z,31.37
2018-03-28T05:34:13.913Z,30.37
2018-03-28T05:35:19.665Z,32.55
2018-03-28T05:36:25.186Z,34.80
2018-03-28T05:37:30.974Z,35.60
2018-03-28T05:38:37.500Z,31.10
2018-03-28T05:39:43.251Z,34.90
2018-03-28T05:40:48.997Z,35.90
2018-03-28T05:41:54.759Z,32.40
2018-03-28T05:43:01.301Z,30.98
2018-03-28T05:44:08.571Z,32.70
2018-03-28T05:45:15.092Z,32.33
2018-03-28T05:46:20.877Z,33.38
2018-03-28T05:47:30.439Z,27.27
2018-03-28T05:48:36.997Z,28.80
2018-03-28T05:49:43.660Z,27.52
2018-03-28T05:50:49.516Z,29.30
2018-03-28T05:51:56.022Z,30.05
2018-03-28T05:53:01.819Z,27.65
2018-03-28T05:54:07.584Z,29.90
2018-03-28T05:55:13.336Z,28.87
2018-03-28T05:56:18.777Z,31.90
2018-03-28T05:57:24.529Z,27.75
2018-03-28T05:58:30.416Z,26.30
2018-03-28T05:59:39.441Z,27.40
2018-03-28T06:00:45.196Z,30.80
2018-03-28T06:01:50.984Z,30.10
2018-03-28T06:02:56.745Z,28.90
2018-03-28T06:04:03.269Z,28.67
2018-03-28T06:05:09.050Z,29.48
2018-03-28T06:06:15.580Z,27.05
2018-03-28T06:07:21.408Z,26.15
2018-03-28T06:08:28.074Z,27.23
2018-03-28T06:09:33.842Z,24.70
2018-03-28T06:10:39.610Z,26.92
2018-03-28T06:11:45.369Z,24.10
2018-03-28T06:12:51.146Z,27.00
2018-03-28T06:13:56.943Z,26.67
2018-03-28T06:15:03.643Z,26.70
2018-03-28T06:16:09.081Z,24.35
2018-03-28T06:17:14.862Z,25.02
2018-03-28T06:18:20.604Z,24.48
2018-03-28T06:19:27.120Z,25.58
2018-03-28T06:20:32.914Z,26.27
2018-03-28T06:21:38.750Z,27.83
2018-03-28T06:22:45.275Z,25.25
2018-03-28T06:23:51.038Z,26.45
2018-03-28T06:24:57.248Z,27.25
2018-03-28T06:26:03.006Z,28.00
2018-03-28T06:27:08.776Z,26.98
2018-03-28T06:28:14.531Z,26.33
2018-03-28T06:29:21.110Z,25.05
2018-03-28T06:30:26.853Z,25.27
2018-03-28T06:31:32.602Z,28.50
2018-03-28T06:32:38.433Z,24.70
2018-03-28T06:33:44.274Z,28.02
2018-03-28T06:34:50.026Z,24.87
2018-03-28T06:35:55.786Z,27.40
2018-03-28T06:37:01.297Z,27.13
2018-03-28T06:38:07.057Z,26.85
2018-03-28T06:39:12.875Z,27.75
2018-03-28T06:40:19.390Z,27.52
2018-03-28T06:41:25.164Z,27.70
2018-03-28T06:42:30.930Z,26.87
2018-03-28T06:43:37.474Z,25.83
2018-03-28T06:44:44.041Z,25.85
2018-03-28T06:45:49.781Z,28.58
2018-03-28T06:46:55.541Z,28.48
2018-03-28T06:48:01.320Z,28.00
2018-03-28T06:49:07.122Z,23.67
2018-03-28T06:50:12.874Z,25.60
2018-03-28T06:51:18.640Z,24.70
2018-03-28T06:52:24.386Z,26.80
2018-03-28T06:53:31.677Z,28.08
2018-03-28T06:54:38.508Z,25.40
2018-03-28T06:55:44.254Z,27.23
2018-03-28T06:56:50.018Z,26.55
2018-03-28T06:57:55.777Z,23.38
2018-03-28T06:59:01.537Z,25.50
2018-03-28T07:00:08.086Z,27.52
2018-03-28T07:01:14.633Z,28.05
2018-03-28T07:02:20.422Z,26.92
2018-03-28T07:03:26.176Z,28.02
2018-03-28T07:04:31.921Z,28.05
2018-03-28T07:05:37.699Z,26.92
2018-03-28T07:06:43.440Z,28.23
2018-03-28T07:07:49.205Z,27.42
2018-03-28T07:08:54.972Z,27.95
2018-03-28T07:10:00.717Z,25.98
2018-03-28T07:11:06.503Z,28.12
2018-03-28T07:12:13.109Z,26.65
2018-03-28T07:13:18.878Z,26.08
2018-03-28T07:14:24.632Z,27.58
2018-03-28T07:15:30.468Z,27.35
2018-03-28T07:16:36.243Z,27.55
2018-03-28T07:17:42.534Z,26.67
2018-03-28T07:18:48.285Z,27.52
2018-03-28T07:19:54.035Z,25.73
2018-03-28T07:21:00.662Z,27.37
2018-03-28T07:22:07.197Z,27.85
2018-03-28T07:23:12.945Z,28.12
2018-03-28T07:24:19.225Z,26.27
2018-03-28T07:25:24.985Z,26.75
2018-03-28T07:26:30.749Z,28.10
2018-03-28T07:27:36.281Z,27.10
2018-03-28T07:28:42.029Z,27.20
2018-03-28T07:29:47.768Z,26.05
2018-03-28T07:30:53.556Z,27.98
2018-03-28T07:32:00.082Z,26.70
2018-03-28T07:33:05.848Z,29.42
2018-03-28T07:34:12.361Z,28.55
2018-03-28T07:35:18.101Z,28.85
2018-03-28T07:36:23.987Z,26.08
2018-03-28T07:37:29.725Z,28.52
2018-03-28T07:38:36.389Z,29.17
2018-03-28T07:39:42.916Z,26.67
2018-03-28T07:40:48.673Z,28.92
2018-03-28T07:41:54.089Z,25.48
2018-03-28T07:42:59.841Z,28.67
2018-03-28T07:44:05.644Z,28.25
2018-03-28T07:45:11.401Z,29.65
2018-03-28T07:46:17.163Z,27.87
2018-03-28T07:47:22.909Z,27.10
2018-03-28T07:48:28.661Z,29.42
2018-03-28T07:49:34.447Z,27.80
2018-03-28T07:50:40.223Z,28.42
2018-03-28T07:51:45.972Z,27.60
2018-03-28T07:52:51.733Z,28.02
2018-03-28T07:53:57.489Z,29.30
2018-03-28T07:55:03.808Z,29.00
2018-03-28T07:56:09.736Z,28.75
2018-03-28T07:57:15.500Z,28.05
2018-03-28T07:58:21.241Z,29.48
2018-03-28T07:59:27.068Z,30.50
2018-03-28T08:00:32.864Z,28.42
2018-03-28T08:01:38.613Z,27.60
2018-03-28T08:02:44.366Z,29.10
2018-03-28T08:03:50.175Z,30.30
2018-03-28T08:04:55.863Z,28.15
2018-03-28T08:06:01.624Z,29.85
2018-03-28T08:07:08.308Z,27.30
2018-03-28T08:08:14.070Z,27.37
2018-03-28T08:09:20.626Z,29.42
2018-03-28T08:10:27.142Z,29.30
2018-03-28T08:11:32.914Z,29.63
2018-03-28T08:12:38.656Z,28.17
2018-03-28T08:13:45.174Z,28.50
2018-03-28T08:14:50.969Z,30.33
2018-03-28T08:15:57.479Z,28.73
2018-03-28T08:17:03.257Z,29.58
2018-03-28T08:18:09.008Z,31.02
2018-03-28T08:19:15.574Z,27.92
2018-03-28T08:20:21.477Z,30.12
2018-03-28T08:21:27.216Z,29.73
2018-03-28T08:22:32.984Z,28.77
2018-03-28T08:23:38.725Z,28.48
2018-03-28T08:24:44.477Z,30.40
2018-03-28T08:25:50.225Z,28.40
2018-03-28T08:26:56.738Z,27.40
2018-03-28T08:28:02.525Z,29.45
2018-03-28T08:29:09.040Z,30.77
2018-03-28T08:30:14.781Z,26.50
2018-03-28T08:31:20.542Z,28.90
2018-03-28T08:32:27.797Z,27.98
2018-03-28T08:33:33.576Z,28.58
2018-03-28T08:34:39.312Z,26.37
2018-03-28T08:35:45.060Z,27.17
2018-03-28T08:36:51.598Z,29.45
2018-03-28T08:37:57.100Z,25.62
2018-03-28T08:39:02.888Z,26.92
2018-03-28T08:40:08.632Z,27.83
2018-03-28T08:41:14.613Z,29.17
2018-03-28T08:42:20.356Z,28.90
2018-03-28T08:43:26.109Z,30.00
2018-03-28T08:44:31.897Z,29.05
2018-03-28T08:45:37.645Z,27.60
2018-03-28T08:46:44.164Z,26.65
2018-03-28T08:47:49.918Z,28.42
2018-03-28T08:48:55.660Z,28.77
2018-03-28T08:50:01.445Z,28.80
2018-03-28T08:51:07.962Z,27.15
2018-03-28T08:52:13.755Z,28.15
2018-03-28T08:53:19.688Z,29.00
2018-03-28T08:54:25.900Z,30.23
2018-03-28T08:55:31.717Z,29.25
2018-03-28T08:56:37.476Z,29.10
2018-03-28T08:57:43.241Z,28.38
2018-03-28T08:58:48.996Z,28.95
2018-03-28T08:59:54.748Z,29.58
2018-03-28T09:01:01.304Z,30.98
2018-03-28T09:02:07.816Z,30.15
2018-03-28T09:03:13.585Z,30.42
2018-03-28T09:04:20.112Z,28.23
2018-03-28T09:05:25.874Z,29.10
2018-03-28T09:06:31.648Z,28.15
2018-03-28T09:07:38.291Z,29.70
2018-03-28T09:08:44.204Z,27.37
2018-03-28T09:09:49.970Z,26.67
2018-03-28T09:10:55.727Z,28.95
2018-03-28T09:12:01.513Z,29.20
2018-03-28T09:13:07.607Z,27.15
2018-03-28T09:14:13.366Z,28.17
2018-03-28T09:15:19.127Z,30.58
2018-03-28T09:16:25.657Z,29.60
2018-03-28T09:17:31.447Z,28.30
2018-03-28T09:18:37.210Z,28.52
2018-03-28T09:19:42.960Z,29.30
2018-03-28T09:20:48.730Z,30.20
2018-03-28T09:21:54.498Z,28.48
2018-03-28T09:23:01.049Z,29.10
2018-03-28T09:24:07.579Z,29.73
2018-03-28T09:25:13.330Z,32.05
2018-03-28T09:26:19.520Z,28.95
2018-03-28T09:27:25.289Z,26.50
2018-03-28T09:28:31.060Z,26.10
2018-03-28T09:29:36.884Z,24.87
2018-03-28T09:30:42.824Z,23.73
2018-03-28T09:31:48.586Z,25.50
2018-03-28T09:32:54.344Z,24.85
2018-03-28T09:34:00.158Z,27.70
2018-03-28T09:35:05.906Z,27.27
2018-03-28T09:36:11.662Z,26.70
2018-03-28T09:37:18.942Z,28.15
2018-03-28T09:38:24.697Z,26.33
2018-03-28T09:39:31.244Z,27.00
2018-03-28T09:40:37.902Z,22.98
2018-03-28T09:41:43.812Z,25.58
2018-03-28T09:42:49.569Z,25.25
2018-03-28T09:43:55.318Z,27.95
2018-03-28T09:45:01.106Z,26.60
2018-03-28T09:46:07.847Z,25.67
2018-03-28T09:47:15.104Z,26.00
2018-03-28T09:48:21.302Z,23.73
2018-03-28T09:49:27.064Z,24.23
2018-03-28T09:50:32.852Z,23.87
2018-03-28T09:51:38.621Z,22.80
2018-03-28T09:52:45.185Z,26.00
2018-03-28T09:53:51.009Z,24.95
2018-03-28T09:54:57.532Z,24.60
2018-03-28T09:56:03.332Z,25.12
2018-03-28T09:57:09.272Z,25.20
2018-03-28T09:58:15.808Z,25.88
2018-03-28T09:59:21.578Z,22.92
2018-03-28T10:00:27.881Z,25.08
2018-03-28T10:01:33.428Z,24.90
2018-03-28T10:02:44.076Z,25.15
2018-03-28T10:03:50.517Z,25.17
2018-03-28T10:05:00.114Z,24.33
2018-03-28T10:06:06.642Z,25.17
2018-03-28T10:07:12.422Z,23.62
2018-03-28T10:08:18.944Z,26.00
2018-03-28T10:09:24.710Z,23.38
2018-03-28T10:10:30.466Z,21.50
2018-03-28T10:11:36.660Z,22.60
2018-03-28T10:12:42.437Z,22.23
2018-03-28T10:13:48.191Z,22.05
2018-03-28T10:14:54.730Z,21.25
2018-03-28T10:16:00.701Z,22.10
2018-03-28T10:17:06.895Z,20.95
2018-03-28T10:18:12.674Z,20.45
2018-03-28T10:19:18.433Z,21.35
2018-03-28T10:20:24.194Z,23.98
2018-03-28T10:21:29.944Z,18.87
2018-03-28T10:22:36.467Z,18.85
2018-03-28T10:23:42.254Z,18.92
2018-03-28T10:24:48.009Z,20.85
2018-03-28T10:25:53.777Z,19.27
2018-03-28T10:26:59.545Z,19.10
2018-03-28T10:28:05.304Z,18.75
2018-03-28T10:29:11.081Z,18.25
2018-03-28T10:30:16.852Z,19.45
2018-03-28T10:31:22.611Z,19.33
2018-03-28T10:32:28.395Z,18.50
2018-03-28T10:33:33.930Z,15.73
2018-03-28T10:34:40.500Z,16.60
2018-03-28T10:35:45.921Z,18.10
2018-03-28T10:36:52.446Z,17.92
2018-03-28T10:37:58.200Z,15.18
2018-03-28T10:39:03.935Z,16.02
2018-03-28T10:40:09.751Z,15.68
2018-03-28T10:41:15.529Z,15.63
2018-03-28T10:42:21.314Z,17.80
2018-03-28T10:43:27.298Z,17.27
2018-03-28T10:44:33.076Z,16.55
2018-03-28T10:45:39.626Z,17.00
2018-03-28T10:46:46.159Z,14.93
2018-03-28T10:47:52.065Z,15.80
2018-03-28T10:48:58.234Z,14.95
2018-03-28T10:50:03.996Z,15.77
2018-03-28T10:51:09.814Z,26.62
2018-03-28T10:52:15.592Z,26.83
2018-03-28T10:53:22.873Z,17.02
2018-03-28T10:54:28.490Z,14.52
2018-03-28T10:55:35.834Z,15.65
2018-03-28T10:56:41.647Z,15.98
2018-03-28T10:57:48.236Z,16.40
2018-03-28T10:58:54.075Z,17.33
2018-03-28T11:00:00.625Z,15.85
2018-03-28T11:01:06.394Z,24.42
2018-03-28T11:02:12.214Z,19.52
2018-03-28T11:03:17.988Z,17.98
2018-03-28T11:04:23.758Z,16.08
2018-03-28T11:05:29.537Z,14.50
2018-03-28T11:06:35.311Z,12.82
2018-03-28T11:07:41.118Z,12.88
2018-03-28T11:08:46.895Z,14.35
2018-03-28T11:09:52.706Z,14.65
2018-03-28T11:10:58.485Z,13.73
2018-03-28T11:12:04.259Z,14.57
2018-03-28T11:13:10.068Z,14.45
2018-03-28T11:14:15.851Z,15.15
2018-03-28T11:15:22.406Z,14.40
2018-03-28T11:16:28.958Z,15.80
2018-03-28T11:17:34.744Z,14.93
2018-03-28T11:18:40.553Z,14.75
2018-03-28T11:19:47.123Z,15.75
2018-03-28T11:20:53.708Z,15.27
2018-03-28T11:21:59.482Z,15.77
2018-03-28T11:23:05.257Z,16.85
2018-03-28T11:24:11.062Z,16.12
2018-03-28T11:25:16.851Z,16.12
2018-03-28T11:26:23.395Z,13.93
2018-03-28T11:27:29.166Z,14.13
2018-03-28T11:28:34.945Z,15.25
2018-03-28T11:29:40.751Z,14.73
2018-03-28T11:30:46.618Z,13.55
2018-03-28T11:31:53.327Z,13.62
2018-03-28T11:32:59.126Z,14.38
2018-03-28T11:34:04.900Z,14.93
2018-03-28T11:35:10.722Z,14.40
2018-03-28T11:36:16.541Z,14.93
2018-03-28T11:37:22.330Z,13.48
2018-03-28T11:38:28.106Z,13.00
2018-03-28T11:39:34.753Z,14.05
2018-03-28T11:40:40.566Z,11.52
2018-03-28T11:41:46.349Z,13.68
2018-03-28T11:42:52.911Z,13.90
2018-03-28T11:43:59.450Z,14.07
2018-03-28T11:45:04.654Z,14.35
2018-03-28T11:46:10.362Z,13.35
2018-03-28T11:47:18.590Z,13.45
2018-03-28T11:48:24.366Z,13.77
2018-03-28T11:49:30.134Z,15.05
2018-03-28T11:50:35.913Z,15.30
2018-03-28T11:51:41.725Z,14.80
2018-03-28T11:52:47.510Z,14.25
2018-03-28T11:53:53.290Z,15.65
2018-03-28T11:54:59.877Z,15.50
2018-03-28T11:56:05.351Z,15.32
2018-03-28T11:57:11.146Z,15.40
2018-03-28T11:58:21.645Z,15.77
2018-03-28T11:59:27.859Z,14.18
2018-03-28T12:00:33.647Z,13.75
2018-03-28T12:01:39.441Z,15.88
2018-03-28T12:02:45.294Z,15.27
2018-03-28T12:03:51.100Z,16.73
2018-03-28T12:04:56.890Z,14.50
2018-03-28T12:06:02.717Z,14.35
2018-03-28T12:07:09.317Z,13.35
2018-03-28T12:08:16.278Z,14.95
2018-03-28T12:09:22.088Z,14.35
2018-03-28T12:10:27.884Z,12.25
2018-03-28T12:11:33.674Z,13.10
2018-03-28T12:12:39.465Z,12.82
2018-03-28T12:13:45.287Z,12.32
2018-03-28T12:14:51.059Z,13.07
2018-03-28T12:15:57.686Z,11.88
2018-03-28T12:17:03.682Z,11.70
2018-03-28T12:18:10.222Z,12.20
2018-03-28T12:19:16.026Z,12.65
2018-03-28T12:20:21.816Z,12.55
2018-03-28T12:21:27.606Z,11.40
2018-03-28T12:22:33.383Z,11.93
2018-03-28T12:23:39.156Z,12.95
2018-03-28T12:24:45.717Z,12.45
2018-03-28T12:25:52.259Z,12.37
2018-03-28T12:26:58.051Z,12.60
2018-03-28T12:28:03.901Z,12.48
2018-03-28T12:29:09.868Z,11.93
2018-03-28T12:30:15.776Z,11.32
2018-03-28T12:31:21.571Z,12.05
2018-03-28T12:32:27.346Z,13.70
2018-03-28T12:33:33.171Z,12.95
2018-03-28T12:34:39.148Z,13.75
2018-03-28T12:35:44.943Z,12.70
2018-03-28T12:36:50.746Z,12.70
2018-03-28T12:37:56.753Z,12.13
2018-03-28T12:39:03.071Z,12.55
2018-03-28T12:40:08.857Z,15.85
2018-03-28T12:41:15.439Z,15.88
2018-03-28T12:42:21.231Z,13.88
2018-03-28T12:43:27.019Z,15.65
2018-03-28T12:44:32.790Z,11.95
2018-03-28T12:45:38.565Z,14.98
2018-03-28T12:46:45.147Z,13.60
2018-03-28T12:47:51.690Z,13.30
2018-03-28T12:48:57.468Z,14.27
2018-03-28T12:50:03.274Z,15.60
2018-03-28T12:51:09.246Z,15.20
2018-03-28T12:52:15.866Z,16.77
2018-03-28T12:53:21.793Z,15.57
2018-03-28T12:54:27.553Z,18.08
2018-03-28T12:55:33.387Z,15.45
2018-03-28T12:56:39.336Z,16.45
2018-03-28T12:57:45.133Z,16.08
2018-03-28T12:58:50.906Z,16.05
2018-03-28T12:59:56.690Z,16.80
2018-03-28T13:01:02.650Z,16.67
2018-03-28T13:02:09.178Z,19.90
2018-03-28T13:03:14.967Z,17.00
2018-03-28T13:04:20.720Z,17.60
2018-03-28T13:05:26.495Z,16.58
2018-03-28T13:06:32.252Z,18.37
2018-03-28T13:07:38.012Z,17.62
2018-03-28T13:08:44.595Z,18.05
2018-03-28T13:09:50.351Z,17.67
2018-03-28T13:10:56.125Z,16.60
2018-03-28T13:12:01.889Z,19.17
2018-03-28T13:13:07.649Z,24.55
2018-03-28T13:14:14.227Z,28.48
2018-03-28T13:15:19.995Z,26.10
2018-03-28T13:16:25.761Z,27.10
2018-03-28T13:17:31.516Z,28.23
2018-03-28T13:18:37.275Z,28.00
2018-03-28T13:19:43.064Z,30.35
2018-03-28T13:20:48.820Z,29.00
2018-03-28T13:21:54.583Z,30.65
2018-03-28T13:23:00.348Z,30.40
2018-03-28T13:24:05.787Z,27.70
2018-03-28T13:25:12.093Z,29.70
2018-03-28T13:26:17.900Z,29.77
2018-03-28T13:27:23.652Z,29.80
2018-03-28T13:28:29.412Z,28.62
2018-03-28T13:29:35.168Z,27.17
2018-03-28T13:30:40.976Z,30.30
2018-03-28T13:31:46.728Z,30.50
2018-03-28T13:32:52.495Z,31.35
2018-03-28T13:33:58.292Z,28.65
2018-03-28T13:35:04.041Z,30.12
2018-03-28T13:36:10.770Z,32.70
2018-03-28T13:37:17.297Z,30.25
2018-03-28T13:38:23.191Z,31.35
2018-03-28T13:39:28.956Z,31.52
2018-03-28T13:40:34.705Z,30.15
2018-03-28T13:41:40.490Z,31.90
2018-03-28T13:42:47.012Z,31.17
2018-03-28T13:43:52.768Z,32.33
2018-03-28T13:44:58.532Z,31.20
2018-03-28T13:46:04.820Z,33.50
2018-03-28T13:47:10.616Z,31.92
2018-03-28T13:48:16.177Z,32.45
2018-03-28T13:49:21.941Z,32.33
2018-03-28T13:50:27.719Z,31.75
2018-03-28T13:51:33.486Z,33.03
2018-03-28T13:52:39.276Z,34.33
2018-03-28T13:53:45.035Z,33.13
2018-03-28T13:54:50.788Z,35.20
2018-03-28T13:55:56.553Z,33.22
2018-03-28T13:57:02.322Z,32.10
2018-03-28T13:58:08.141Z,31.60
2018-03-28T13:59:13.884Z,33.67
2018-03-28T14:00:20.342Z,32.67
2018-03-28T14:01:26.927Z,31.65
2018-03-28T14:02:32.688Z,31.58
2018-03-28T14:03:38.573Z,32.47
2018-03-28T14:04:46.814Z,33.97
2018-03-28T14:05:52.246Z,33.28
2018-03-28T14:06:58.023Z,32.90
2018-03-28T14:08:03.811Z,35.65
2018-03-28T14:09:10.373Z,34.97
2018-03-28T14:10:16.901Z,34.00
2018-03-28T14:11:22.678Z,34.80